Time;durP1;ratioP1;P1;durP2;ratioP2;P2;SDS_P1;SDS_P2;PMS_P1;PMS_P2;Temp;Humidity;BMP_temperature;BMP_pressure;BME280_temperature;BME280_humidity;BME280_pressure;Samples;Min_cycle;Max_cycle;Signal;HPM_P1;HPM_P2
2023/05/03 00:01:31;;;;;;;0.10;0.10;;;;;;;3.01;100.00;101641.00;5013837;28;20668;-76
2023/05/03 00:03:57;;;;;;;0.67;0.67;;;;;;;2.93;100.00;101636.78;5013695;28;20195;-76
2023/05/03 00:06:22;;;;;;;0.10;0.10;;;;;;;2.91;100.00;101635.38;5013085;28;20184;-76
2023/05/03 00:08:47;;;;;;;1.00;1.00;;;;;;;2.83;100.00;101641.91;5013915;28;20184;-76
2023/05/03 00:11:13;;;;;;;0.63;0.63;;;;;;;2.85;100.00;101638.97;5015186;28;20291;-76
2023/05/03 00:13:38;;;;;;;1.00;1.00;;;;;;;2.87;100.00;101636.88;5014587;28;20200;-76
2023/05/03 00:16:04;;;;;;;0.13;0.13;;;;;;;2.92;100.00;101637.03;5014377;28;20308;-76
2023/05/03 00:18:30;;;;;;;0.27;0.27;;;;;;;2.89;100.00;101638.31;5014983;28;20211;-76
2023/05/03 00:20:55;;;;;;;0.00;0.00;;;;;;;2.82;100.00;101642.16;5015061;28;20232;-76
2023/05/03 00:23:21;;;;;;;0.23;0.10;;;;;;;2.83;100.00;101646.50;5018445;28;20650;-76
2023/05/03 00:25:54;;;;;;;0.50;0.50;;;;;;;2.78;100.00;101636.41;5014980;28;20734;-76
2023/05/03 00:28:20;;;;;;;0.23;0.23;;;;;;;2.76;100.00;101638.50;5015170;28;20185;-76
2023/05/03 00:30:45;;;;;;;0.00;0.00;;;;;;;2.68;100.00;101636.13;5013855;28;20219;-76
2023/05/03 00:33:11;;;;;;;0.10;0.10;;;;;;;2.67;100.00;101645.28;5015275;28;20204;-76
2023/05/03 00:35:36;;;;;;;0.00;0.00;;;;;;;2.77;100.00;101645.53;5015009;28;20185;-77
2023/05/03 00:38:01;;;;;;;0.70;0.70;;;;;;;2.80;100.00;101645.09;5014880;28;20658;-76
2023/05/03 00:40:27;;;;;;;0.67;0.67;;;;;;;2.77;100.00;101645.53;5013831;28;20268;-76
2023/05/03 00:42:52;;;;;;;0.10;0.10;;;;;;;2.76;100.00;101645.78;5012829;28;20180;-76
2023/05/03 00:45:17;;;;;;;0.00;0.00;;;;;;;2.71;100.00;101645.63;5013995;28;20180;-76
2023/05/03 00:47:43;;;;;;;0.47;0.40;;;;;;;2.71;100.00;101646.44;5029558;28;20196;-76
2023/05/03 00:50:10;;;;;;;4.43;2.00;;;;;;;2.78;100.00;101644.50;5013335;28;20641;-76
2023/05/03 00:52:36;;;;;;;0.20;0.20;;;;;;;2.64;100.00;101640.34;5013474;28;20196;-76
2023/05/03 00:55:02;;;;;;;0.27;0.27;;;;;;;2.62;100.00;101648.66;5013341;28;20544;-76
2023/05/03 00:57:28;;;;;;;4.00;1.10;;;;;;;2.57;100.00;101651.19;5013664;28;20279;-76
2023/05/03 00:59:55;;;;;;;0.00;0.00;;;;;;;2.51;100.00;101637.81;5014083;28;20704;-76
2023/05/03 01:02:21;;;;;;;0.30;0.30;;;;;;;2.55;100.00;101644.41;5014026;28;20239;-76
2023/05/03 01:04:46;;;;;;;2.23;0.33;;;;;;;2.61;100.00;101647.03;5013716;28;20219;-76
2023/05/03 01:07:35;;;;;;;8.23;0.63;;;;;;;2.62;100.00;101643.28;5014882;28;20234;-76
2023/05/03 01:10:16;;;;;;;0.37;0.37;;;;;;;2.55;100.00;101633.59;5012944;28;20208;-76
2023/05/03 01:12:54;;;;;;;0.80;0.60;;;;;;;2.56;100.00;101638.78;5011580;28;20205;-76
2023/05/03 01:15:37;;;;;;;0.20;0.20;;;;;;;2.50;100.00;101637.00;5012789;28;20180;-76
2023/05/03 01:18:11;;;;;;;0.00;0.00;;;;;;;2.55;100.00;101637.13;5015161;28;20180;-77
2023/05/03 01:20:36;;;;;;;0.27;0.27;;;;;;;2.48;100.00;101633.72;5014000;28;20251;-76
2023/05/03 01:23:14;;;;;;;0.00;0.00;;;;;;;2.43;100.00;101638.13;5013657;28;20260;-76
2023/05/03 01:25:39;;;;;;;0.00;0.00;;;;;;;2.50;100.00;101646.97;5012858;28;20717;-76
2023/05/03 01:28:05;;;;;;;0.30;0.17;;;;;;;2.42;100.00;101637.31;5012961;28;20184;-76
2023/05/03 01:30:31;;;;;;;0.00;0.00;;;;;;;2.36;100.00;101639.06;5013123;28;20212;-76
2023/05/03 01:33:19;;;;;;;1.03;0.97;;;;;;;2.32;100.00;101645.13;5014052;28;20208;-76
2023/05/03 01:36:01;;;;;;;0.40;0.40;;;;;;;2.26;100.00;101651.41;5013767;28;20174;-76
2023/05/03 01:38:32;;;;;;;0.40;0.40;;;;;;;2.19;100.00;101650.69;5012325;28;20256;-76
2023/05/03 01:41:01;;;;;;;0.50;0.50;;;;;;;2.16;100.00;101651.94;5012583;28;20243;-76
2023/05/03 01:43:30;;;;;;;0.37;0.37;;;;;;;2.08;100.00;101647.69;5011695;28;20196;-76
2023/05/03 01:45:55;;;;;;;0.57;0.57;;;;;;;2.03;100.00;101654.81;5013079;28;20235;-76
2023/05/03 01:48:20;;;;;;;1.13;0.70;;;;;;;1.99;100.00;101648.19;5014400;28;20184;-76
2023/05/03 01:50:46;;;;;;;0.07;0.07;;;;;;;1.98;100.00;101644.69;5013744;28;20212;-76
2023/05/03 01:53:11;;;;;;;0.10;0.10;;;;;;;1.96;100.00;101649.47;5012810;28;20238;-76
2023/05/03 01:55:36;;;;;;;0.53;0.53;;;;;;;1.96;100.00;101654.06;5012730;28;20188;-76
2023/05/03 01:58:02;;;;;;;0.10;0.10;;;;;;;1.98;100.00;101650.06;5011061;28;20613;-75
2023/05/03 02:00:28;;;;;;;0.33;0.33;;;;;;;2.02;100.00;101650.44;5012982;28;20714;-76
2023/05/03 02:02:53;;;;;;;8.70;0.53;;;;;;;1.94;100.00;101654.28;5013003;28;20188;-76
2023/05/03 02:05:18;;;;;;;3.07;1.67;;;;;;;1.88;100.00;101655.19;5010119;28;20187;-75
2023/05/03 02:07:44;;;;;;;0.20;0.20;;;;;;;1.81;100.00;101662.50;5011125;28;20198;-76
2023/05/03 02:10:13;;;;;;;0.27;0.27;;;;;;;1.73;100.00;101658.22;5011478;28;20204;-76
2023/05/03 02:12:43;;;;;;;1.43;1.33;;;;;;;1.67;100.00;101660.97;5011403;28;20287;-76
2023/05/03 02:15:09;;;;;;;1.30;1.27;;;;;;;1.61;100.00;101654.63;5010915;28;20617;-76
2023/05/03 02:17:36;;;;;;;0.33;0.33;;;;;;;1.56;100.00;101654.44;5005804;28;20192;-76
2023/05/03 02:20:04;;;;;;;0.40;0.40;;;;;;;1.67;100.00;101659.13;4998226;28;20211;-76
2023/05/03 02:22:30;;;;;;;0.37;0.37;;;;;;;1.69;100.00;101675.06;5026556;28;20262;-76
2023/05/03 02:24:55;;;;;;;5.50;0.93;;;;;;;1.62;100.00;101661.66;5026046;28;20180;-76
2023/05/03 02:27:20;;;;;;;0.33;0.33;;;;;;;1.62;100.00;101660.84;5009898;28;20234;-76
2023/05/03 02:29:45;;;;;;;0.43;0.43;;;;;;;1.69;100.00;101664.28;5011154;28;20183;-76
2023/05/03 02:32:11;;;;;;;0.50;0.40;;;;;;;1.69;100.00;101667.78;5010924;28;20271;-76
2023/05/03 02:34:37;;;;;;;1.57;0.97;;;;;;;1.64;100.00;101667.66;5011305;28;20193;-76
2023/05/03 02:37:03;;;;;;;3.80;2.43;;;;;;;1.68;100.00;101668.03;5027093;28;20183;-75
2023/05/03 02:39:28;;;;;;;2.87;2.73;;;;;;;1.76;100.00;101673.13;5011240;28;20242;-76
2023/05/03 02:41:53;;;;;;;0.33;0.33;;;;;;;1.95;100.00;101679.34;5011821;28;20200;-76
2023/05/03 02:44:19;;;;;;;0.57;0.40;;;;;;;2.07;100.00;101682.97;5011404;28;20243;-76
2023/05/03 02:46:44;;;;;;;1.67;1.57;;;;;;;2.11;100.00;101683.31;5011013;28;20191;-76
2023/05/03 02:49:10;;;;;;;0.87;0.87;;;;;;;2.00;100.00;101684.88;5026184;28;20250;-76
2023/05/03 02:51:35;;;;;;;0.50;0.50;;;;;;;1.94;100.00;101677.72;5009575;28;20298;-76
2023/05/03 02:54:01;;;;;;;1.73;1.63;;;;;;;1.90;100.00;101687.28;5009548;28;20682;-76
2023/05/03 02:56:27;;;;;;;0.00;0.00;;;;;;;1.99;100.00;101694.03;5010374;28;20188;-76
2023/05/03 02:58:53;;;;;;;0.20;0.20;;;;;;;1.97;100.00;101683.47;5025895;28;20186;-76
2023/05/03 03:01:18;;;;;;;0.57;0.57;;;;;;;1.93;100.00;101692.22;5025895;28;20197;-76
2023/05/03 03:03:44;;;;;;;1.80;1.70;;;;;;;1.81;100.00;101692.13;5010889;28;20307;-76
2023/05/03 03:06:09;;;;;;;1.40;1.30;;;;;;;1.76;100.00;101684.72;5009098;28;20180;-76
2023/05/03 03:08:37;;;;;;;0.40;0.40;;;;;;;1.83;100.00;101691.91;5010528;28;20176;-76
2023/05/03 03:11:04;;;;;;;1.03;1.03;;;;;;;1.85;100.00;101692.50;5011571;28;20579;-76
2023/05/03 03:13:30;;;;;;;0.20;0.20;;;;;;;1.88;100.00;101687.53;5010341;28;20188;-76
2023/05/03 03:15:55;;;;;;;0.00;0.00;;;;;;;1.89;100.00;101691.03;5011762;28;20186;-76
2023/05/03 03:18:20;;;;;;;2.17;1.93;;;;;;;2.00;100.00;101703.75;5011410;28;20176;-76
2023/05/03 03:20:46;;;;;;;0.00;0.00;;;;;;;2.15;100.00;101704.22;5010635;28;20262;-76
2023/05/03 03:23:11;;;;;;;1.57;1.37;;;;;;;2.13;100.00;101703.59;5009213;28;20231;-76
2023/05/03 03:25:36;;;;;;;0.00;0.00;;;;;;;2.15;100.00;101695.28;5010401;28;20203;-76
2023/05/03 03:28:02;;;;;;;0.73;0.30;;;;;;;2.09;100.00;101702.41;5010584;28;20202;-76
2023/05/03 03:30:27;;;;;;;3.33;1.30;;;;;;;1.97;100.00;101699.63;5009205;28;20583;-76
2023/05/03 03:32:53;;;;;;;1.30;1.10;;;;;;;1.85;100.00;101700.59;5010610;28;20183;-76
2023/05/03 03:35:19;;;;;;;5.67;2.40;;;;;;;1.82;100.00;101699.16;5009982;28;20180;-76
2023/05/03 03:37:44;;;;;;;0.10;0.10;;;;;;;1.81;100.00;101704.78;5010593;28;20180;-76
2023/05/03 03:40:10;;;;;;;0.00;0.00;;;;;;;1.82;100.00;101704.56;5010488;28;20187;-76
2023/05/03 03:42:36;;;;;;;0.27;0.20;;;;;;;1.88;100.00;101698.31;5025783;28;20240;-76
2023/05/03 03:45:01;;;;;;;0.00;0.00;;;;;;;1.92;100.00;101701.38;5010626;28;20231;-76
2023/05/03 03:47:27;;;;;;;0.07;0.07;;;;;;;1.93;100.00;101703.84;5010517;28;20184;-76
2023/05/03 03:49:52;;;;;;;0.87;0.87;;;;;;;1.85;100.00;101700.59;5012172;28;20181;-75
2023/05/03 03:52:17;;;;;;;0.37;0.37;;;;;;;1.77;100.00;101699.84;5016685;28;20679;-76
2023/05/03 03:54:43;;;;;;;1.33;1.23;;;;;;;1.75;100.00;101704.63;5015685;28;20559;-75
2023/05/03 03:57:09;;;;;;;0.00;0.00;;;;;;;1.85;100.00;101705.97;5009582;28;20200;-76
2023/05/03 03:59:34;;;;;;;0.30;0.30;;;;;;;2.00;100.00;101715.34;5010555;28;20177;-76
2023/05/03 04:01:59;;;;;;;0.67;0.67;;;;;;;1.99;100.00;101705.63;5011544;28;20192;-76
2023/05/03 04:04:25;;;;;;;18.90;1.27;;;;;;;1.91;100.00;101700.53;5011989;28;20225;-76
2023/05/03 04:06:50;;;;;;;1.83;1.70;;;;;;;1.85;100.00;101706.81;5013896;28;20185;-76
2023/05/03 04:09:16;;;;;;;0.67;0.67;;;;;;;1.85;100.00;101704.09;5013761;28;20215;-76
2023/05/03 04:11:41;;;;;;;0.00;0.00;;;;;;;1.89;100.00;101707.22;5013491;28;20702;-76
2023/05/03 04:14:07;;;;;;;0.43;0.43;;;;;;;1.86;100.00;101708.44;5013208;28;20188;-76
2023/05/03 04:16:32;;;;;;;0.37;0.37;;;;;;;1.86;100.00;101699.53;5013758;28;20188;-76
2023/05/03 04:18:57;;;;;;;1.20;0.30;;;;;;;1.86;100.00;101703.06;5012235;28;20247;-76
2023/05/03 04:21:23;;;;;;;0.00;0.00;;;;;;;1.91;100.00;101705.09;5013432;28;20670;-76
2023/05/03 04:23:48;;;;;;;0.70;0.30;;;;;;;1.91;100.00;101697.03;4997992;28;20224;-76
2023/05/03 04:26:13;;;;;;;0.30;0.30;;;;;;;1.95;100.00;101707.13;5010981;28;20180;-76
2023/05/03 04:28:39;;;;;;;0.57;0.57;;;;;;;2.00;100.00;101706.44;5013368;28;20180;-76
2023/05/03 04:31:04;;;;;;;0.00;0.00;;;;;;;2.11;100.00;101702.19;5013309;28;20709;-76
2023/05/03 04:33:30;;;;;;;0.40;0.40;;;;;;;2.22;100.00;101712.25;5013206;28;20177;-76
2023/05/03 04:35:55;;;;;;;0.00;0.00;;;;;;;2.22;100.00;101723.84;5012814;28;20584;-76
2023/05/03 04:38:21;;;;;;;0.00;0.00;;;;;;;2.33;100.00;101716.88;5028319;28;20271;-76
2023/05/03 04:40:46;;;;;;;0.00;0.00;;;;;;;2.41;100.00;101718.44;5011915;28;20554;-76
2023/05/03 04:43:12;;;;;;;0.00;0.00;;;;;;;2.51;100.00;101721.44;5011853;28;20306;-76
2023/05/03 04:45:38;;;;;;;0.00;0.00;;;;;;;2.67;100.00;101720.81;5012724;28;20180;-76
2023/05/03 04:48:04;;;;;;;0.00;0.00;;;;;;;2.79;100.00;101728.97;5011753;28;20264;-76
2023/05/03 04:50:30;;;;;;;0.47;0.47;;;;;;;2.79;100.00;101715.47;5012873;28;20208;-76
2023/05/03 04:52:55;;;;;;;0.00;0.00;;;;;;;2.85;100.00;101723.47;5011646;28;20666;-76
2023/05/03 04:55:20;;;;;;;3.23;1.00;;;;;;;2.89;100.00;101724.69;5012238;28;20651;-76
2023/05/03 04:57:45;;;;;;;3.83;1.50;;;;;;;2.89;100.00;101718.44;5012883;28;20184;-76
2023/05/03 05:00:11;;;;;;;0.00;0.00;;;;;;;2.92;100.00;101720.69;5012876;28;20180;-76
2023/05/03 05:02:37;;;;;;;0.00;0.00;;;;;;;3.06;100.00;101729.44;5012570;28;20258;-76
2023/05/03 05:05:02;;;;;;;0.07;0.07;;;;;;;3.19;100.00;101734.63;5010876;28;20188;-76
2023/05/03 05:07:28;;;;;;;0.40;0.40;;;;;;;3.32;100.00;101723.59;5009290;28;20200;-76
2023/05/03 05:09:54;;;;;;;0.00;0.00;;;;;;;3.41;100.00;101724.09;5012588;28;20185;-76
2023/05/03 05:12:19;;;;;;;0.00;0.00;;;;;;;3.57;100.00;101723.44;5011341;28;20242;-76
2023/05/03 05:14:45;;;;;;;0.67;0.67;;;;;;;3.69;100.00;101723.44;5012067;28;20272;-77
2023/05/03 05:17:10;;;;;;;0.00;0.00;;;;;;;3.82;100.00;101723.22;5011138;28;20212;-76
2023/05/03 05:19:35;;;;;;;0.33;0.33;;;;;;;3.87;100.00;101732.25;5012525;28;20238;-76
2023/05/03 05:22:01;;;;;;;0.40;0.37;;;;;;;3.96;100.00;101735.44;5012229;28;20254;-76
2023/05/03 05:24:26;;;;;;;0.40;0.40;;;;;;;4.02;100.00;101739.91;5027160;28;20184;-76
2023/05/03 05:26:52;;;;;;;2.00;1.90;;;;;;;4.06;100.00;101749.19;5011064;28;20185;-76
2023/05/03 05:29:17;;;;;;;0.93;0.93;;;;;;;4.10;100.00;101752.25;5011029;28;20295;-76
2023/05/03 05:31:43;;;;;;;0.43;0.43;;;;;;;4.16;100.00;101743.19;5012110;28;20208;-76
2023/05/03 05:34:08;;;;;;;0.87;0.87;;;;;;;4.21;100.00;101747.91;5011507;28;20188;-76
2023/05/03 05:36:33;;;;;;;1.47;1.37;;;;;;;4.29;100.00;101758.34;5010829;28;20718;-76
2023/05/03 05:38:59;;;;;;;1.07;1.07;;;;;;;4.30;100.00;101759.97;5012247;28;20659;-77
2023/05/03 05:41:24;;;;;;;0.93;0.73;;;;;;;4.32;100.00;101766.78;5011902;28;20204;-77
2023/05/03 05:43:50;;;;;;;2.83;2.63;;;;;;;4.35;100.00;101766.34;5011983;28;20211;-76
2023/05/03 05:46:15;;;;;;;0.70;0.70;;;;;;;4.37;100.00;101776.94;5010208;28;20651;-76
2023/05/03 05:48:41;;;;;;;0.10;0.10;;;;;;;4.42;100.00;101777.03;5012441;28;20603;-77
2023/05/03 05:51:07;;;;;;;3.47;1.47;;;;;;;4.50;100.00;101781.25;5010362;28;20267;-77
2023/05/03 05:53:33;;;;;;;1.13;1.10;;;;;;;4.52;100.00;101773.72;5011857;28;20172;-77
2023/05/03 05:55:58;;;;;;;3.50;0.40;;;;;;;4.57;100.00;101774.66;5011345;28;20203;-77
2023/05/03 05:58:23;;;;;;;0.80;0.80;;;;;;;4.62;100.00;101772.03;5008847;28;20245;-77
2023/05/03 06:00:49;;;;;;;1.30;0.63;;;;;;;4.68;100.00;101773.81;5013085;28;20247;-79
2023/05/03 06:03:14;;;;;;;1.27;1.27;;;;;;;4.76;100.00;101781.53;5012069;28;20180;-76
2023/05/03 06:05:40;;;;;;;0.10;0.10;;;;;;;4.81;100.00;101783.53;5009969;28;20267;-76
2023/05/03 06:08:05;;;;;;;0.50;0.50;;;;;;;4.88;100.00;101778.78;5026716;28;20208;-76
2023/05/03 06:10:31;;;;;;;0.17;0.17;;;;;;;4.91;100.00;101782.91;5011386;28;20262;-76
2023/05/03 06:12:56;;;;;;;6.20;1.20;;;;;;;4.98;100.00;101780.91;5011572;28;20204;-76
2023/05/03 06:15:21;;;;;;;0.00;0.00;;;;;;;5.05;100.00;101784.25;5011019;28;20180;-76
2023/05/03 06:17:48;;;;;;;1.33;1.33;;;;;;;5.11;100.00;101786.03;5011666;28;20299;-76
2023/05/03 06:20:13;;;;;;;0.20;0.20;;;;;;;5.14;100.00;101785.53;5011297;28;20267;-76
2023/05/03 06:22:39;;;;;;;0.57;0.57;;;;;;;5.17;99.77;101781.50;5011409;28;20574;-76
2023/05/03 06:25:06;;;;;;;0.10;0.10;;;;;;;5.23;98.58;101784.09;5010433;28;20212;-76
2023/05/03 06:27:32;;;;;;;0.07;0.07;;;;;;;5.34;98.00;101785.91;5011337;28;20203;-76
2023/05/03 06:29:57;;;;;;;0.00;0.00;;;;;;;5.49;97.97;101788.06;5011311;28;20196;-76
2023/05/03 06:32:23;;;;;;;0.00;0.00;;;;;;;5.64;97.42;101795.63;5011171;28;20200;-76
2023/05/03 06:34:48;;;;;;;0.37;0.37;;;;;;;5.72;96.40;101792.53;5010073;28;20181;-77
2023/05/03 06:37:14;;;;;;;0.00;0.00;;;;;;;5.83;95.46;101810.63;5011208;28;20673;-76
2023/05/03 06:39:39;;;;;;;0.00;0.00;;;;;;;5.98;94.29;101796.53;5011102;28;20180;-76
2023/05/03 06:42:05;;;;;;;0.00;0.00;;;;;;;6.04;93.81;101794.69;5011033;28;20242;-76
2023/05/03 06:44:30;;;;;;;0.00;0.00;;;;;;;6.09;93.28;101797.50;5009446;28;20609;-76
2023/05/03 06:46:55;;;;;;;0.10;0.10;;;;;;;6.04;92.07;101798.22;5009918;28;20603;-76
2023/05/03 06:49:21;;;;;;;0.00;0.00;;;;;;;6.18;92.86;101807.66;5010988;28;20271;-76
2023/05/03 06:51:46;;;;;;;0.20;0.20;;;;;;;6.26;93.47;101811.88;5010903;28;20227;-76
2023/05/03 06:54:12;;;;;;;0.00;0.00;;;;;;;6.30;92.43;101810.28;5010718;28;20230;-76
2023/05/03 06:56:37;;;;;;;0.00;0.00;;;;;;;6.29;89.61;101803.22;5011121;28;20200;-76
2023/05/03 06:59:03;;;;;;;0.00;0.00;;;;;;;6.53;88.07;101801.94;5010882;28;20188;-76
2023/05/03 07:01:31;;;;;;;0.00;0.00;;;;;;;6.70;87.93;101792.94;5010962;28;20227;-76
2023/05/03 07:03:57;;;;;;;0.00;0.00;;;;;;;6.80;86.55;101793.88;5003789;28;20185;-76
2023/05/03 07:06:23;;;;;;;0.20;0.07;;;;;;;6.88;85.55;101794.50;5009619;28;20177;-76
2023/05/03 07:08:52;;;;;;;1.40;1.30;;;;;;;6.72;84.42;101788.06;5011370;28;20226;-76
2023/05/03 07:11:21;;;;;;;0.00;0.00;;;;;;;6.83;85.28;101792.56;5010516;28;20228;-76
2023/05/03 07:13:46;;;;;;;1.60;1.50;;;;;;;7.01;84.98;101794.94;5011043;28;20587;-76
2023/05/03 07:16:11;;;;;;;0.00;0.00;;;;;;;7.11;83.33;101789.63;5026976;28;20187;-76
2023/05/03 07:18:37;;;;;;;0.00;0.00;;;;;;;7.13;81.77;101789.38;5026599;28;20204;-76
2023/05/03 07:21:04;;;;;;;0.00;0.00;;;;;;;7.15;80.79;101790.75;5004863;28;20204;-76
2023/05/03 07:23:30;;;;;;;0.40;0.40;;;;;;;7.30;79.39;101786.56;4995193;28;20215;-76
2023/05/03 07:25:55;;;;;;;0.57;0.40;;;;;;;7.25;78.18;101776.44;5010795;28;20184;-76
2023/05/03 07:28:21;;;;;;;0.73;0.43;;;;;;;7.37;77.60;101768.13;5010558;28;20954;-76
2023/05/03 07:30:46;;;;;;;0.00;0.00;;;;;;;7.28;77.44;101777.84;5010889;28;20630;-76
2023/05/03 07:33:12;;;;;;;0.00;0.00;;;;;;;7.44;78.82;101785.88;5009003;28;20257;-76
2023/05/03 07:35:37;;;;;;;0.50;0.50;;;;;;;7.47;76.55;101768.22;5010736;28;20666;-76
2023/05/03 07:38:02;;;;;;;0.43;0.17;;;;;;;7.88;76.49;101776.72;5014213;28;20680;-76
2023/05/03 07:40:31;;;;;;;0.83;0.73;;;;;;;7.59;74.20;101758.00;5014389;28;20242;-76
2023/05/03 07:42:56;;;;;;;0.10;0.10;;;;;;;7.49;73.75;101757.09;5012822;28;20211;-76
2023/05/03 07:45:22;;;;;;;0.00;0.00;;;;;;;7.59;74.92;101763.44;5012271;28;20224;-76
2023/05/03 07:47:47;;;;;;;0.00;0.00;;;;;;;7.71;74.99;101768.72;5012210;28;20696;-76
2023/05/03 07:50:12;;;;;;;0.00;0.00;;;;;;;7.79;74.12;101754.63;5013906;28;20663;-76
2023/05/03 07:52:39;;;;;;;0.00;0.00;;;;;;;8.05;72.76;101748.28;5014068;28;20204;-76
2023/05/03 07:55:05;;;;;;;0.30;0.30;;;;;;;8.26;70.26;101741.06;5013771;28;20180;-76
2023/05/03 07:57:31;;;;;;;0.20;0.20;;;;;;;8.04;68.56;101726.78;5012552;28;20238;-76
2023/05/03 07:59:56;;;;;;;0.23;0.23;;;;;;;7.98;69.20;101725.13;5013933;28;20189;-77
2023/05/03 08:02:21;;;;;;;0.13;0.13;;;;;;;7.79;69.73;101737.47;5013774;28;20204;-77
2023/05/03 08:04:47;;;;;;;0.80;0.80;;;;;;;7.72;71.57;101751.31;5012444;28;20200;-76
2023/05/03 08:07:13;;;;;;;0.27;0.27;;;;;;;7.65;71.58;101753.41;5013811;28;20180;-77
2023/05/03 08:09:38;;;;;;;0.00;0.00;;;;;;;7.66;70.92;101739.56;5012519;28;20267;-77
2023/05/03 08:12:04;;;;;;;0.10;0.10;;;;;;;7.89;71.02;101743.81;5013414;28;20733;-77
2023/05/03 08:14:29;;;;;;;0.00;0.00;;;;;;;7.95;70.38;101742.75;5014440;28;20191;-81
2023/05/03 08:16:54;;;;;;;0.00;0.00;;;;;;;8.09;70.69;101740.41;5014693;28;20249;-77
2023/05/03 08:19:20;;;;;;;2.90;0.10;;;;;;;7.98;69.55;101734.09;5014836;28;20279;-76
2023/05/03 08:21:48;;;;;;;0.00;0.00;;;;;;;8.10;70.09;101742.06;5014277;28;20704;-76
2023/05/03 08:24:13;;;;;;;0.00;0.00;;;;;;;7.98;69.77;101733.28;5013687;28;20188;-80
2023/05/03 08:26:40;;;;;;;0.40;0.40;;;;;;;7.72;69.17;101735.00;5014798;28;20268;-80
2023/05/03 08:29:06;;;;;;;0.03;0.03;;;;;;;7.75;69.44;101739.91;5013662;28;20176;-77
2023/05/03 08:31:31;;;;;;;0.00;0.00;;;;;;;7.83;69.35;101746.78;5014946;28;20208;-83
2023/05/03 08:33:57;;;;;;;0.10;0.00;;;;;;;7.91;69.24;101735.38;5016776;28;20259;-76
2023/05/03 08:36:22;;;;;;;0.00;0.00;;;;;;;7.96;69.39;101738.16;5028215;28;20195;-77
2023/05/03 08:38:49;;;;;;;0.00;0.00;;;;;;;8.22;68.71;101744.56;5013419;28;20185;-77
2023/05/03 08:41:26;;;;;;;0.00;0.00;;;;;;;8.48;67.57;101737.38;5012922;28;20242;-77
2023/05/03 08:43:53;;;;;;;4.23;0.70;;;;;;;8.31;66.49;101715.78;5013235;28;20191;-77
2023/05/03 08:46:18;;;;;;;0.40;0.40;;;;;;;8.23;66.50;101724.44;5012536;28;20195;-76
2023/05/03 08:48:47;;;;;;;0.00;0.00;;;;;;;8.31;66.15;101723.94;5013279;28;20184;-77
2023/05/03 08:51:13;;;;;;;0.97;0.20;;;;;;;8.41;65.39;101728.66;5013004;28;20277;-77
2023/05/03 08:53:38;;;;;;;0.30;0.17;;;;;;;8.46;65.03;101732.22;5013776;28;20658;-76
2023/05/03 08:56:08;;;;;;;0.70;0.70;;;;;;;8.37;65.22;101711.19;5013177;28;20192;-77
2023/05/03 08:58:37;;;;;;;0.00;0.00;;;;;;;8.61;65.24;101723.28;5011921;28;20184;-77
2023/05/03 09:01:07;;;;;;;0.20;0.20;;;;;;;8.92;65.76;101730.47;5012621;28;20199;-77
2023/05/03 09:03:33;;;;;;;0.20;0.20;;;;;;;9.10;65.62;101733.78;5009564;28;20189;-76
2023/05/03 09:06:00;;;;;;;0.30;0.30;;;;;;;9.01;64.17;101719.88;5000581;28;20645;-77
2023/05/03 09:08:29;;;;;;;0.00;0.00;;;;;;;8.78;64.60;101729.34;5012529;28;20181;-77
2023/05/03 09:10:56;;;;;;;0.00;0.00;;;;;;;8.94;64.17;101722.84;5009611;28;20204;-77
2023/05/03 09:13:28;;;;;;;0.00;0.00;;;;;;;8.73;63.42;101712.97;5011365;28;20191;-77
2023/05/03 09:15:54;;;;;;;0.00;0.00;;;;;;;8.73;63.40;101714.88;5027397;28;20730;-77
2023/05/03 09:18:19;;;;;;;0.00;0.00;;;;;;;8.79;65.21;101728.25;5011040;28;20235;-77
2023/05/03 09:20:50;;;;;;;0.30;0.30;;;;;;;8.93;64.51;101713.03;5012495;28;20235;-77
2023/05/03 09:23:24;;;;;;;0.60;0.50;;;;;;;8.99;63.54;101710.31;5012260;28;20203;-77
2023/05/03 09:25:50;;;;;;;0.00;0.00;;;;;;;8.90;63.29;101707.28;5010678;28;20234;-77
2023/05/03 09:28:16;;;;;;;0.20;0.10;;;;;;;8.73;63.11;101701.25;5012262;28;20177;-77
2023/05/03 09:30:43;;;;;;;0.00;0.00;;;;;;;8.84;63.32;101706.47;5012066;28;20541;-77
2023/05/03 09:33:10;;;;;;;0.00;0.00;;;;;;;9.04;64.05;101711.16;5010812;28;20272;-77
2023/05/03 09:35:37;;;;;;;0.00;0.00;;;;;;;9.14;63.65;101710.34;5011769;28;20717;-77
2023/05/03 09:38:02;;;;;;;0.00;0.00;;;;;;;8.96;61.97;101695.31;5004026;28;20180;-77
2023/05/03 09:40:28;;;;;;;0.10;0.10;;;;;;;8.99;62.80;101696.69;5005839;28;20549;-77
2023/05/03 09:43:13;;;;;;;0.00;0.00;;;;;;;9.08;62.36;101703.22;5010024;28;20496;-76
2023/05/03 09:45:39;;;;;;;0.93;0.93;;;;;;;9.11;61.65;101694.50;5026374;28;20658;-77
2023/05/03 09:48:06;;;;;;;0.40;0.40;;;;;;;8.94;61.75;101703.75;5011796;28;20555;-77
2023/05/03 09:50:32;;;;;;;0.00;0.00;;;;;;;9.06;61.54;101691.78;5011761;28;20693;-77
2023/05/03 09:53:02;;;;;;;0.00;0.00;;;;;;;9.21;61.47;101702.72;5026914;28;20258;-77
2023/05/03 09:55:30;;;;;;;0.13;0.13;;;;;;;8.98;61.39;101695.88;5011264;28;20192;-77
2023/05/03 09:57:56;;;;;;;0.00;0.00;;;;;;;9.10;61.62;101692.88;5011481;28;20622;-77
2023/05/03 10:00:24;;;;;;;0.30;0.30;;;;;;;9.15;62.35;101701.91;5011286;28;20168;-77
2023/05/03 10:02:52;;;;;;;0.00;0.00;;;;;;;9.17;62.77;101707.06;5011763;28;20235;-77
2023/05/03 10:05:20;;;;;;;1.03;0.93;;;;;;;9.57;63.83;101711.75;5003104;28;20588;-77
2023/05/03 10:07:49;;;;;;;0.20;0.20;;;;;;;9.74;62.17;101698.63;5010373;28;20184;-77
2023/05/03 10:10:15;;;;;;;0.10;0.10;;;;;;;10.03;61.61;101690.66;5011571;28;20676;-76
2023/05/03 10:12:41;;;;;;;0.53;0.53;;;;;;;9.87;59.79;101671.88;5011593;28;20202;-77
2023/05/03 10:15:09;;;;;;;0.40;0.40;;;;;;;9.76;60.35;101679.25;5026126;28;20176;-76
2023/05/03 10:17:38;;;;;;;0.00;0.00;;;;;;;9.81;60.14;101677.31;5011571;28;20184;-77
2023/05/03 10:20:31;;;;;;;0.53;0.53;;;;;;;9.67;59.44;101678.16;5026525;28;20208;-77
2023/05/03 10:23:05;;;;;;;0.00;0.00;;;;;;;10.05;60.45;101688.47;5011502;28;20211;-77
2023/05/03 10:25:31;;;;;;;0.30;0.30;;;;;;;10.26;60.30;101688.41;5009671;28;20193;-76
2023/05/03 10:28:05;;;;;;;0.10;0.10;;;;;;;10.22;60.42;101687.34;5010207;28;20259;-77
2023/05/03 10:30:35;;;;;;;0.20;0.20;;;;;;;9.92;59.62;101674.56;5011026;28;20196;-76
2023/05/03 10:33:35;;;;;;;0.10;0.10;;;;;;;10.31;61.41;101691.16;5026364;28;20180;-77
2023/05/03 10:36:06;;;;;;;0.30;0.30;;;;;;;10.38;59.41;101672.53;4998684;28;20735;-77
2023/05/03 10:38:31;;;;;;;0.00;0.00;;;;;;;10.76;61.15;101692.84;5022435;28;20191;-77
2023/05/03 10:40:58;;;;;;;0.00;0.00;;;;;;;10.92;60.44;101674.44;5025727;28;20212;-77
2023/05/03 10:43:30;;;;;;;0.10;0.00;;;;;;;11.12;59.52;101682.50;5033799;28;20176;-77
2023/05/03 10:45:56;;;;;;;0.60;0.60;;;;;;;10.54;58.35;101665.06;5010416;28;20275;-77
2023/05/03 10:48:21;;;;;;;1.17;0.37;;;;;;;10.30;57.94;101654.00;5011067;28;20176;-77
2023/05/03 10:50:47;;;;;;;0.87;0.87;;;;;;;10.27;59.16;101660.84;5009709;28;20258;-77
2023/05/03 10:53:42;;;;;;;0.10;0.10;;;;;;;10.57;58.81;101670.00;5009834;28;20199;-77
2023/05/03 10:56:12;;;;;;;0.10;0.10;;;;;;;10.61;59.73;101677.34;5009005;28;20191;-77
2023/05/03 10:58:49;;;;;;;0.00;0.00;;;;;;;10.63;58.60;101664.22;5026111;28;20200;-77
2023/05/03 11:01:16;;;;;;;0.03;0.03;;;;;;;11.09;60.06;101682.25;5010849;28;20199;-77
2023/05/03 11:03:49;;;;;;;0.67;0.50;;;;;;;10.64;57.93;101662.31;5010248;28;20207;-77
2023/05/03 11:06:31;;;;;;;0.00;0.00;;;;;;;10.81;58.99;101661.94;5006978;28;20673;-77
2023/05/03 11:08:57;;;;;;;0.17;0.17;;;;;;;11.46;61.22;101693.47;5007983;28;20183;-77
2023/05/03 11:11:22;;;;;;;2.87;1.03;;;;;;;11.71;60.02;101667.75;5013862;28;20208;-77
2023/05/03 11:13:49;;;;;;;0.27;0.27;;;;;;;11.58;58.88;101652.84;5014583;28;20230;-77
2023/05/03 11:16:15;;;;;;;2.00;0.87;;;;;;;11.69;59.30;101650.00;4996959;28;20240;-77
2023/05/03 11:18:40;;;;;;;0.00;0.00;;;;;;;11.61;58.00;101633.09;5008465;28;20188;-77
2023/05/03 11:21:06;;;;;;;0.30;0.30;;;;;;;11.11;55.90;101617.13;5015408;28;20199;-77
2023/05/03 11:23:31;;;;;;;0.10;0.10;;;;;;;10.66;55.93;101603.53;5014992;28;20176;-77
2023/05/03 11:25:56;;;;;;;0.00;0.00;;;;;;;10.80;57.62;101619.28;5014326;28;20646;-77
2023/05/03 11:28:23;;;;;;;0.87;0.87;;;;;;;11.43;59.33;101646.69;5009774;28;20204;-77